createdAt,value
2022-11-27T00:01:34.313Z,2.30
2022-11-27T00:04:02.540Z,2.30
2022-11-27T00:06:31.484Z,2.40
2022-11-27T00:09:01.260Z,2.30
2022-11-27T00:11:30.738Z,2.30
2022-11-27T00:13:59.073Z,2.30
2022-11-27T00:16:28.439Z,2.30
2022-11-27T00:18:56.571Z,2.20
2022-11-27T00:21:30.799Z,2.20
2022-11-27T00:24:00.872Z,2.20
2022-11-27T00:26:35.916Z,2.20
2022-11-27T00:29:06.163Z,2.20
2022-11-27T00:31:36.061Z,2.20
2022-11-27T00:34:06.717Z,2.20
2022-11-27T00:36:35.727Z,2.20
2022-11-27T00:39:04.749Z,2.20
2022-11-27T00:41:36.204Z,2.20
2022-11-27T00:44:07.786Z,2.20
2022-11-27T00:46:39.086Z,2.20
2022-11-27T00:49:07.756Z,2.30
2022-11-27T00:51:36.206Z,2.30
2022-11-27T00:54:04.615Z,2.30
2022-11-27T00:56:36.032Z,2.30
2022-11-27T00:59:05.043Z,2.30
2022-11-27T01:01:38.358Z,2.30
2022-11-27T01:04:07.928Z,2.30
2022-11-27T01:06:36.345Z,2.30
2022-11-27T01:09:05.450Z,2.40
2022-11-27T01:11:35.296Z,2.40
2022-11-27T01:14:06.841Z,2.40
2022-11-27T01:16:36.395Z,2.40
2022-11-27T01:19:06.149Z,2.40
2022-11-27T01:21:35.783Z,2.40
2022-11-27T01:24:05.077Z,2.40
2022-11-27T01:26:33.239Z,2.40
2022-11-27T01:29:01.403Z,2.40
2022-11-27T01:31:32.362Z,2.40
2022-11-27T01:34:09.431Z,2.40
2022-11-27T01:36:37.710Z,2.40
2022-11-27T01:39:06.441Z,2.40
2022-11-27T01:41:41.004Z,2.30
2022-11-27T01:44:27.391Z,2.30
2022-11-27T01:47:04.958Z,2.30
2022-11-27T01:49:44.082Z,2.30
2022-11-27T01:52:18.162Z,2.30
2022-11-27T01:55:00.930Z,2.40
2022-11-27T01:57:50.930Z,2.30
2022-11-27T02:00:19.756Z,2.30
2022-11-27T02:02:48.154Z,2.40
2022-11-27T02:05:21.593Z,2.40
2022-11-27T02:07:50.190Z,2.30
2022-11-27T02:10:18.772Z,2.30
2022-11-27T02:13:05.042Z,2.20
2022-11-27T02:15:32.933Z,2.20
2022-11-27T02:18:13.061Z,2.20
2022-11-27T02:20:57.148Z,2.20
2022-11-27T02:23:40.606Z,2.20
2022-11-27T02:26:30.468Z,2.30
2022-11-27T02:29:05.265Z,2.30
2022-11-27T02:31:46.614Z,2.30
2022-11-27T02:34:29.848Z,2.30
2022-11-27T02:37:05.445Z,2.30
2022-11-27T02:40:04.309Z,2.30
2022-11-27T02:42:40.704Z,2.30
2022-11-27T02:45:18.829Z,2.30
2022-11-27T02:47:50.505Z,2.30
2022-11-27T02:50:22.825Z,2.30
2022-11-27T02:52:54.300Z,2.30
2022-11-27T02:55:26.181Z,2.30
2022-11-27T02:57:56.981Z,2.20
2022-11-27T03:00:25.297Z,2.20
2022-11-27T03:03:00.516Z,2.20
2022-11-27T03:05:33.823Z,2.10
2022-11-27T03:08:24.156Z,2.10
2022-11-27T03:11:13.480Z,2.10
2022-11-27T03:13:45.742Z,2.10
2022-11-27T03:16:27.657Z,2.00
2022-11-27T03:19:20.888Z,2.00
2022-11-27T03:22:06.786Z,2.00
2022-11-27T03:24:38.125Z,2.00
2022-11-27T03:27:06.695Z,1.90
2022-11-27T03:29:54.621Z,1.90
2022-11-27T03:32:23.164Z,1.90
2022-11-27T03:34:51.305Z,1.80
2022-11-27T03:37:19.402Z,1.80
2022-11-27T03:39:47.291Z,1.80
2022-11-27T03:42:37.085Z,1.80
2022-11-27T03:45:17.407Z,1.80
2022-11-27T03:48:03.377Z,1.70
2022-11-27T03:50:55.852Z,1.60
2022-11-27T03:53:42.525Z,1.60
2022-11-27T03:56:19.315Z,1.50
2022-11-27T03:59:01.073Z,1.50
2022-11-27T04:01:30.449Z,1.50
2022-11-27T04:03:58.572Z,1.50
2022-11-27T04:06:26.608Z,1.50
2022-11-27T04:08:54.496Z,1.50
2022-11-27T04:11:22.420Z,1.40
2022-11-27T04:13:50.336Z,1.40
2022-11-27T04:16:18.279Z,1.40
2022-11-27T04:18:46.341Z,1.30
2022-11-27T04:21:14.412Z,1.40
2022-11-27T04:23:42.405Z,1.30
2022-11-27T04:26:10.469Z,1.30
2022-11-27T04:28:38.449Z,1.30
2022-11-27T04:31:06.577Z,1.30
2022-11-27T04:33:34.757Z,1.20
2022-11-27T04:36:02.736Z,1.30
2022-11-27T04:38:30.617Z,1.20
2022-11-27T04:40:59.146Z,1.20
2022-11-27T04:43:27.038Z,1.20
2022-11-27T04:45:54.877Z,1.10
2022-11-27T04:48:22.774Z,1.10
2022-11-27T04:50:50.694Z,1.10
2022-11-27T04:53:18.536Z,1.20
2022-11-27T04:55:46.468Z,1.10
2022-11-27T04:58:14.389Z,1.10
2022-11-27T05:00:42.406Z,1.10
2022-11-27T05:03:10.348Z,1.10
2022-11-27T05:05:38.329Z,1.10
2022-11-27T05:08:06.308Z,1.20
2022-11-27T05:10:34.258Z,1.10
2022-11-27T05:13:02.122Z,1.10
2022-11-27T05:15:29.989Z,1.10
2022-11-27T05:17:57.830Z,1.10
2022-11-27T05:20:25.744Z,1.10
2022-11-27T05:22:53.648Z,1.10
2022-11-27T05:25:21.540Z,1.10
2022-11-27T05:27:49.967Z,1.10
2022-11-27T05:30:17.854Z,1.10
2022-11-27T05:32:45.765Z,1.10
2022-11-27T05:35:13.701Z,1.10
2022-11-27T05:37:41.629Z,1.10
2022-11-27T05:40:09.968Z,1.10
2022-11-27T05:42:37.892Z,1.20
2022-11-27T05:45:06.244Z,1.10
2022-11-27T05:47:34.180Z,1.10
2022-11-27T05:50:02.041Z,1.10
2022-11-27T05:52:29.953Z,1.10
2022-11-27T05:54:57.831Z,1.10
2022-11-27T05:57:25.769Z,1.10
2022-11-27T05:59:53.784Z,1.20
2022-11-27T06:02:26.423Z,1.10
2022-11-27T06:04:59.249Z,1.10
2022-11-27T06:07:27.283Z,1.00
2022-11-27T06:09:56.120Z,1.00
2022-11-27T06:12:26.536Z,1.00
2022-11-27T06:14:54.505Z,1.10
2022-11-27T06:17:22.380Z,1.10
2022-11-27T06:19:50.230Z,1.00
2022-11-27T06:22:18.106Z,1.00
2022-11-27T06:24:45.994Z,1.00
2022-11-27T06:27:13.936Z,1.00
2022-11-27T06:29:41.908Z,1.00
2022-11-27T06:32:09.852Z,1.00
2022-11-27T06:34:38.004Z,1.00
2022-11-27T06:37:10.403Z,1.00
2022-11-27T06:39:40.944Z,1.00
2022-11-27T06:42:08.936Z,1.00
2022-11-27T06:44:36.896Z,1.00
2022-11-27T06:47:04.779Z,1.00
2022-11-27T06:49:32.773Z,1.10
2022-11-27T06:52:01.032Z,1.00
2022-11-27T06:54:29.063Z,1.00
2022-11-27T06:56:56.984Z,0.90
2022-11-27T06:59:24.979Z,0.80
2022-11-27T07:01:52.927Z,0.90
2022-11-27T07:04:21.114Z,0.90
2022-11-27T07:06:49.092Z,1.00
2022-11-27T07:09:17.128Z,1.00
2022-11-27T07:11:44.987Z,1.00
2022-11-27T07:14:12.860Z,1.00
2022-11-27T07:16:40.835Z,1.00
2022-11-27T07:19:09.509Z,1.00
2022-11-27T07:21:38.506Z,1.00
2022-11-27T07:24:06.937Z,1.00
2022-11-27T07:26:34.833Z,1.00
2022-11-27T07:29:02.734Z,1.00
2022-11-27T07:31:31.685Z,1.10
2022-11-27T07:33:59.991Z,1.10
2022-11-27T07:36:30.589Z,1.10
2022-11-27T07:38:59.257Z,1.10
2022-11-27T07:41:33.551Z,1.10
2022-11-27T07:44:01.840Z,1.10
2022-11-27T07:46:31.233Z,1.20
2022-11-27T07:49:01.453Z,1.20
2022-11-27T07:51:29.856Z,1.30
2022-11-27T07:53:57.785Z,1.20
2022-11-27T07:56:25.698Z,1.30
2022-11-27T07:58:53.616Z,1.30
2022-11-27T08:01:23.323Z,1.30
2022-11-27T08:03:54.981Z,1.40
2022-11-27T08:06:25.524Z,1.50
2022-11-27T08:08:54.414Z,1.60
2022-11-27T08:11:28.064Z,1.60
2022-11-27T08:14:08.973Z,1.70
2022-11-27T08:16:37.382Z,1.60
2022-11-27T08:19:05.376Z,1.70
2022-11-27T08:21:33.948Z,1.70
2022-11-27T08:24:01.868Z,1.80
2022-11-27T08:26:30.100Z,1.80
2022-11-27T08:28:58.861Z,1.80
2022-11-27T08:31:27.339Z,1.90
2022-11-27T08:33:55.297Z,1.90
2022-11-27T08:36:25.524Z,2.00
2022-11-27T08:38:53.957Z,2.00
2022-11-27T08:41:22.398Z,2.10
2022-11-27T08:43:50.333Z,2.10
2022-11-27T08:46:18.359Z,2.20
2022-11-27T08:48:46.332Z,2.20
2022-11-27T08:51:16.339Z,2.20
2022-11-27T08:53:46.669Z,2.30
2022-11-27T08:56:18.672Z,2.20
2022-11-27T08:58:47.104Z,2.20
2022-11-27T09:01:18.956Z,2.20
2022-11-27T09:03:49.975Z,2.30
2022-11-27T09:06:24.833Z,2.30
2022-11-27T09:08:53.231Z,2.30
2022-11-27T09:11:21.662Z,2.30
2022-11-27T09:13:50.054Z,2.30
2022-11-27T09:16:19.954Z,2.40
2022-11-27T09:18:50.481Z,2.40
2022-11-27T09:21:20.324Z,2.50
2022-11-27T09:23:48.417Z,2.60
2022-11-27T09:26:18.493Z,2.60
2022-11-27T09:28:46.991Z,2.70
2022-11-27T09:31:16.223Z,2.70
2022-11-27T09:33:45.316Z,2.60
2022-11-27T09:36:19.421Z,2.60
2022-11-27T09:38:47.743Z,2.60
2022-11-27T09:41:24.873Z,2.60
2022-11-27T09:44:00.458Z,2.70
2022-11-27T09:46:36.953Z,2.60
2022-11-27T09:49:16.582Z,2.60
2022-11-27T09:52:03.186Z,2.70
2022-11-27T09:54:42.408Z,2.80
2022-11-27T09:57:17.118Z,2.80
2022-11-27T09:59:50.544Z,3.00
2022-11-27T10:02:25.199Z,3.60
2022-11-27T10:07:48.888Z,3.10
2022-11-27T10:10:25.687Z,3.00
2022-11-27T10:13:15.112Z,2.90
2022-11-27T10:16:21.134Z,2.90
2022-11-27T10:19:29.587Z,2.90
2022-11-27T10:22:19.636Z,3.00
2022-11-27T10:24:59.618Z,3.10
2022-11-27T10:27:47.775Z,3.10
2022-11-27T10:30:21.264Z,3.20
2022-11-27T10:32:55.722Z,3.30
2022-11-27T10:35:27.034Z,3.50
2022-11-27T10:38:11.311Z,3.60
2022-11-27T10:41:18.632Z,3.40
2022-11-27T10:44:04.434Z,3.40
2022-11-27T10:46:38.116Z,3.60
2022-11-27T10:49:09.214Z,4.00
2022-11-27T10:51:41.613Z,4.20
2022-11-27T10:54:22.206Z,4.10
2022-11-27T10:57:28.404Z,3.90
2022-11-27T11:00:15.630Z,3.70
2022-11-27T11:02:45.446Z,3.60
2022-11-27T11:08:21.845Z,3.50
2022-11-27T11:11:00.944Z,3.40
2022-11-27T11:13:51.893Z,3.50
2022-11-27T11:16:25.003Z,3.50
2022-11-27T11:18:56.424Z,3.50
2022-11-27T11:21:32.920Z,3.60
2022-11-27T11:24:13.889Z,3.60
2022-11-27T11:26:47.212Z,3.70
2022-11-27T11:29:28.236Z,3.70
2022-11-27T11:31:57.976Z,3.80
2022-11-27T11:34:32.901Z,3.80
2022-11-27T11:37:23.621Z,3.80
2022-11-27T11:40:24.948Z,3.80
2022-11-27T11:43:01.837Z,3.80
2022-11-27T11:48:28.386Z,3.90
2022-11-27T11:51:18.775Z,3.80
2022-11-27T11:54:22.034Z,3.90
2022-11-27T11:56:53.613Z,4.00
2022-11-27T11:59:43.725Z,4.00
2022-11-27T12:02:30.504Z,4.00
2022-11-27T12:05:25.232Z,4.10
2022-11-27T12:08:23.839Z,4.20
2022-11-27T12:11:11.167Z,4.20
2022-11-27T12:14:03.275Z,4.20
2022-11-27T12:16:57.145Z,4.20
2022-11-27T12:19:42.663Z,4.20
2022-11-27T12:22:38.767Z,4.20
2022-11-27T12:25:21.857Z,4.20
2022-11-27T12:28:14.667Z,4.20
2022-11-27T12:31:04.182Z,4.20
2022-11-27T12:33:40.821Z,4.20
2022-11-27T12:36:49.080Z,4.20
2022-11-27T12:39:44.375Z,4.20
2022-11-27T12:42:44.801Z,4.20
2022-11-27T12:45:34.916Z,4.20
2022-11-27T12:48:18.303Z,4.20
2022-11-27T12:50:57.957Z,4.30
2022-11-27T12:53:37.729Z,4.30
2022-11-27T12:56:22.153Z,4.20
2022-11-27T12:58:57.221Z,4.20
2022-11-27T13:01:30.331Z,4.20
2022-11-27T13:04:26.102Z,4.20
2022-11-27T13:07:11.464Z,4.20
2022-11-27T13:10:19.649Z,4.20
2022-11-27T13:13:02.064Z,4.20
2022-11-27T13:15:45.118Z,4.20
2022-11-27T13:18:34.737Z,4.20
2022-11-27T13:21:13.306Z,4.30
2022-11-27T13:23:41.253Z,4.30
2022-11-27T13:26:26.349Z,4.30
2022-11-27T13:29:01.868Z,4.30
2022-11-27T13:31:36.436Z,4.40
2022-11-27T13:34:08.785Z,4.40
2022-11-27T13:36:42.749Z,4.40
2022-11-27T13:39:25.313Z,4.40
2022-11-27T13:42:07.855Z,4.40
2022-11-27T13:44:41.209Z,4.40
2022-11-27T13:47:15.036Z,4.40
2022-11-27T13:49:44.518Z,4.40
2022-11-27T13:52:21.257Z,4.40
2022-11-27T13:54:57.633Z,4.40
2022-11-27T13:57:26.567Z,4.50
2022-11-27T14:00:05.535Z,4.50
2022-11-27T14:02:53.000Z,4.50
2022-11-27T14:05:34.598Z,4.60
2022-11-27T14:08:02.750Z,4.70
2022-11-27T14:10:33.893Z,4.60
2022-11-27T14:13:04.727Z,4.60
2022-11-27T14:15:36.408Z,4.60
2022-11-27T14:18:19.632Z,4.60
2022-11-27T14:20:52.873Z,4.60
2022-11-27T14:23:37.288Z,4.60
2022-11-27T14:26:15.351Z,4.60
2022-11-27T14:28:51.737Z,4.60
2022-11-27T14:31:30.880Z,4.60
2022-11-27T14:34:15.287Z,4.60
2022-11-27T14:36:44.896Z,4.50
2022-11-27T14:39:24.443Z,4.50
2022-11-27T14:42:30.069Z,4.50
2022-11-27T14:45:11.857Z,4.50
2022-11-27T14:47:49.228Z,4.50
2022-11-27T14:50:18.538Z,4.40
2022-11-27T14:52:53.070Z,4.40
2022-11-27T14:55:34.286Z,4.50
2022-11-27T14:58:02.833Z,4.40
2022-11-27T15:00:32.551Z,4.40
2022-11-27T15:03:11.206Z,4.40
2022-11-27T15:05:40.176Z,4.40
2022-11-27T15:08:10.612Z,4.40
2022-11-27T15:10:41.489Z,4.40
2022-11-27T15:13:23.842Z,4.40
2022-11-27T15:16:24.265Z,4.30
2022-11-27T15:18:58.001Z,4.40
2022-11-27T15:21:26.920Z,4.40
2022-11-27T15:23:56.742Z,4.40
2022-11-27T15:26:36.471Z,4.40
2022-11-27T15:29:05.041Z,4.40
2022-11-27T15:31:40.580Z,4.40
2022-11-27T15:34:17.422Z,4.40
2022-11-27T15:36:49.765Z,4.40
2022-11-27T15:39:21.654Z,4.30
2022-11-27T15:41:54.908Z,4.60
2022-11-27T15:44:24.673Z,5.20
2022-11-27T15:46:56.174Z,5.00
2022-11-27T15:49:27.538Z,4.80
2022-11-27T15:51:56.278Z,4.60
2022-11-27T15:54:24.822Z,4.50
2022-11-27T15:56:53.001Z,4.50
2022-11-27T15:59:21.733Z,4.50
2022-11-27T16:01:50.570Z,4.50
2022-11-27T16:04:18.820Z,4.40
2022-11-27T16:06:46.710Z,4.40
2022-11-27T16:09:14.639Z,4.30
2022-11-27T16:11:42.864Z,4.30
2022-11-27T16:14:10.704Z,4.30
2022-11-27T16:16:38.723Z,4.30
2022-11-27T16:19:07.521Z,4.30
2022-11-27T16:21:36.718Z,4.30
2022-11-27T16:24:07.505Z,4.20
2022-11-27T16:26:35.936Z,4.20
2022-11-27T16:29:03.883Z,4.20
2022-11-27T16:31:32.309Z,4.20
2022-11-27T16:34:02.531Z,4.20
2022-11-27T16:36:30.706Z,4.10
2022-11-27T16:38:59.076Z,4.10
2022-11-27T16:41:27.317Z,4.10
2022-11-27T16:43:57.723Z,4.00
2022-11-27T16:46:29.054Z,4.10
2022-11-27T16:48:59.864Z,4.10
2022-11-27T16:51:33.653Z,4.10
2022-11-27T16:54:04.384Z,4.00
2022-11-27T16:56:33.979Z,4.00
2022-11-27T16:59:14.256Z,4.00
2022-11-27T17:01:43.748Z,4.00
2022-11-27T17:04:19.391Z,4.00
2022-11-27T17:06:48.749Z,4.00
2022-11-27T17:09:17.381Z,4.00
2022-11-27T17:11:49.651Z,4.00
2022-11-27T17:14:21.168Z,4.00
2022-11-27T17:16:50.313Z,4.00
2022-11-27T17:19:19.763Z,4.00
2022-11-27T17:21:47.972Z,4.00
2022-11-27T17:24:17.318Z,4.00
2022-11-27T17:26:47.154Z,4.00
2022-11-27T17:29:17.225Z,4.00
2022-11-27T17:31:45.465Z,4.00
2022-11-27T17:34:16.897Z,4.00
2022-11-27T17:36:46.259Z,4.00
2022-11-27T17:39:16.032Z,4.10
2022-11-27T17:41:47.713Z,4.10
2022-11-27T17:44:15.756Z,4.00
2022-11-27T17:46:49.081Z,4.00
2022-11-27T17:49:20.467Z,3.90
2022-11-27T17:51:52.828Z,3.90
2022-11-27T17:54:21.594Z,3.90
2022-11-27T17:56:52.344Z,3.90
2022-11-27T17:59:21.136Z,3.90
2022-11-27T18:01:52.387Z,3.90
2022-11-27T18:04:21.110Z,3.90
2022-11-27T18:06:49.415Z,3.90
2022-11-27T18:09:17.783Z,3.90
2022-11-27T18:11:46.136Z,3.90
2022-11-27T18:14:14.716Z,3.90
2022-11-27T18:16:42.983Z,3.90
2022-11-27T18:19:12.340Z,3.90
2022-11-27T18:21:40.889Z,3.90
2022-11-27T18:24:25.316Z,3.80
2022-11-27T18:27:12.518Z,3.80
2022-11-27T18:29:45.010Z,3.80
2022-11-27T18:32:21.625Z,3.80
2022-11-27T18:34:59.557Z,3.80
2022-11-27T18:37:28.856Z,3.90
2022-11-27T18:40:03.606Z,3.90
2022-11-27T18:42:47.350Z,3.80
2022-11-27T18:45:32.371Z,3.90
2022-11-27T18:48:03.723Z,3.90
2022-11-27T18:50:45.815Z,3.80
2022-11-27T18:53:14.138Z,3.90
2022-11-27T18:55:42.453Z,3.90
2022-11-27T18:58:14.059Z,3.90
2022-11-27T19:00:43.080Z,3.90
2022-11-27T19:03:11.038Z,3.90
2022-11-27T19:05:38.975Z,3.90
2022-11-27T19:08:10.035Z,3.90
2022-11-27T19:10:38.242Z,3.90
2022-11-27T19:13:06.709Z,3.90
2022-11-27T19:15:35.575Z,3.90
2022-11-27T19:18:04.583Z,3.90
2022-11-27T19:20:34.567Z,3.90
2022-11-27T19:23:02.985Z,3.90
2022-11-27T19:25:38.721Z,3.90
2022-11-27T19:28:09.754Z,3.90
2022-11-27T19:30:41.013Z,3.90
2022-11-27T19:33:09.438Z,3.90
2022-11-27T19:35:44.021Z,3.90
2022-11-27T19:38:12.593Z,3.90
2022-11-27T19:40:42.749Z,3.90
2022-11-27T19:43:11.171Z,3.90
2022-11-27T19:45:39.564Z,3.90
2022-11-27T19:48:08.594Z,3.90
2022-11-27T19:50:48.523Z,3.90
2022-11-27T19:53:20.420Z,3.90
2022-11-27T19:55:58.494Z,3.90
2022-11-27T19:58:29.519Z,3.90
2022-11-27T20:01:22.588Z,3.90
2022-11-27T20:03:54.695Z,3.90
2022-11-27T20:06:26.727Z,3.90
2022-11-27T20:11:45.138Z,3.80
2022-11-27T20:14:16.317Z,3.80
2022-11-27T20:16:45.420Z,3.80
2022-11-27T20:19:13.834Z,3.80
2022-11-27T20:21:43.690Z,3.80
2022-11-27T20:24:14.220Z,3.80
2022-11-27T20:26:43.659Z,3.70
2022-11-27T20:29:13.939Z,3.80
2022-11-27T20:31:46.019Z,3.70
2022-11-27T20:34:21.500Z,3.70
2022-11-27T20:37:04.152Z,3.70
2022-11-27T20:39:34.451Z,3.70
2022-11-27T20:42:08.911Z,3.70
2022-11-27T20:44:47.575Z,3.70
2022-11-27T20:49:59.187Z,3.60
2022-11-27T20:52:28.165Z,3.60
2022-11-27T20:55:11.815Z,3.60
2022-11-27T20:57:42.850Z,3.60
2022-11-27T21:00:12.944Z,3.60
2022-11-27T21:02:50.986Z,3.60
2022-11-27T21:05:29.285Z,3.60
2022-11-27T21:07:58.662Z,3.60
2022-11-27T21:10:26.778Z,3.60
2022-11-27T21:12:54.907Z,3.60
2022-11-27T21:15:23.438Z,3.60
2022-11-27T21:18:04.220Z,3.60
2022-11-27T21:20:35.259Z,3.60
2022-11-27T21:23:03.525Z,3.60
2022-11-27T21:25:32.959Z,3.60
2022-11-27T21:28:01.526Z,3.60
2022-11-27T21:30:30.938Z,3.60
2022-11-27T21:33:02.360Z,3.60
2022-11-27T21:35:49.126Z,3.60
2022-11-27T21:38:23.050Z,3.60
2022-11-27T21:40:52.623Z,3.60
2022-11-27T21:43:28.609Z,3.60
2022-11-27T21:45:57.540Z,3.60
2022-11-27T21:48:32.245Z,3.60
2022-11-27T21:51:05.502Z,3.60
2022-11-27T21:53:35.842Z,3.60
2022-11-27T21:56:06.022Z,3.60
2022-11-27T21:58:35.797Z,3.50
2022-11-27T22:01:06.247Z,3.50
2022-11-27T22:03:43.353Z,3.50
2022-11-27T22:06:14.278Z,3.50
2022-11-27T22:08:44.516Z,3.50
2022-11-27T22:11:19.605Z,3.50
2022-11-27T22:13:48.134Z,3.50
2022-11-27T22:16:21.563Z,3.50
2022-11-27T22:18:51.305Z,3.50
2022-11-27T22:21:28.343Z,3.40
2022-11-27T22:23:57.844Z,3.40
2022-11-27T22:26:26.713Z,3.40
2022-11-27T22:28:55.180Z,3.40
2022-11-27T22:31:32.441Z,3.40
2022-11-27T22:34:01.567Z,3.40
2022-11-27T22:36:33.658Z,3.40
2022-11-27T22:39:08.426Z,3.40
2022-11-27T22:41:39.295Z,3.40
2022-11-27T22:44:26.290Z,3.40
2022-11-27T22:46:55.925Z,3.40
2022-11-27T22:49:24.572Z,3.40
2022-11-27T22:51:53.731Z,3.30
2022-11-27T22:54:24.085Z,3.30
2022-11-27T22:56:59.140Z,3.30
2022-11-27T22:59:32.808Z,3.30
2022-11-27T23:02:04.047Z,3.40
2022-11-27T23:04:36.176Z,3.30
2022-11-27T23:07:05.523Z,3.30
2022-11-27T23:09:34.232Z,3.30
2022-11-27T23:12:08.949Z,3.40
2022-11-27T23:14:37.483Z,3.30
2022-11-27T23:17:07.872Z,3.30
2022-11-27T23:19:40.677Z,3.30
2022-11-27T23:22:10.827Z,3.30
2022-11-27T23:24:43.187Z,3.30
2022-11-27T23:27:12.029Z,3.30
2022-11-27T23:29:40.364Z,3.30
2022-11-27T23:32:08.882Z,3.30
2022-11-27T23:34:37.302Z,3.30
2022-11-27T23:37:05.717Z,3.30
2022-11-27T23:39:34.192Z,3.30
2022-11-27T23:42:02.333Z,3.40
2022-11-27T23:44:30.570Z,3.40
2022-11-27T23:46:58.820Z,3.40
2022-11-27T23:49:27.134Z,3.40
2022-11-27T23:51:55.377Z,3.40
2022-11-27T23:54:23.638Z,3.40
2022-11-27T23:56:55.396Z,3.40
2022-11-27T23:59:25.299Z,3.50
